South Amherst, Massachusetts
Current Conditions -  °F | °C
As of 12:58 AM on Sunday 26 Oct 2014 (Local Time) from KCEF Reporting Station
Overcast Overcast  
Wind Chill: 55°   Ceiling: 12000
Heat Index: 55°   Visibility: 10mi
Dew Point: 44°   Wind: 2mph
Humidity: 65%   Direction: 290°WNW
Pressure: 29.51"   Gusts: NA
Location:  42.3773°N, 72.4671°W
Report Text: KCEF 260458Z AUTO 29002KT 10SM OVC120 13/06 A2951 RMK AO2 SLP999 T01280064 401910019
Loading
Personal Weather Stations






























Interactive Weather Map
Tropical Storm Tracking
New forecast layout! Learn more

10-Day Weather Forecast

Advertisements
Track Severe Weather on mobile